Iona, South Dakota
Current Conditions -  °F | °C
As of 8:15 AM on Sunday 25 Jan 2015 (Local Time) from K9V9 Reporting Station
Overcast Overcast  
Wind Chill: 29°   Ceiling: 1700
Heat Index: 36°   Visibility: 10mi
Dew Point: 32°   Wind: 9mph
Humidity: 87%   Direction: 320°NW
Pressure: 29.98"   Gusts: NA
Location:  43.54°N, 99.42°W
Report Text: K9V9 251415Z AUTO 32008KT 10SM OVC017 02/00 A2998 RMK AO2 T00200000
Loading
Personal Weather Stations






























Interactive Weather Map New forecast layout! Learn more

10-Day Weather Forecast

Advertisements
Track Severe Weather on mobile